Time,TemperatureF,DewpointF,PressureIn,WindDirection,WindDirectionDegrees,WindSpeedMPH,WindSpeedGustMPH,Humidity,HourlyPrecipIn,Conditions,Clouds,dailyrainin,SoftwareType,DateUTC
2013-01-21 00:33:00,16.0,8.0,-100.00,North,-999,0.0,0.0,71,-99.99,,,0.00,,2013-01-21 07:33:00,
2013-01-21 00:42:00,16.0,8.0,-100.00,North,-999,0.0,0.0,71,-99.99,,,0.00,,2013-01-21 07:42:00,
2013-01-21 00:52:00,16.0,8.0,-100.00,North,-999,0.0,0.0,71,-99.99,,,0.00,,2013-01-21 07:52:00,
2013-01-21 01:02:00,16.0,8.0,-100.00,North,-999,0.0,0.0,71,-99.99,,,0.00,,2013-01-21 08:02:00,
2013-01-21 01:13:00,14.0,7.0,-100.00,ENE,75,6.0,19.0,72,-99.99,,,0.00,,2013-01-21 08:13:00,
2013-01-21 01:22:00,14.0,7.0,-100.00,ENE,75,6.0,19.0,72,-99.99,,,0.00,,2013-01-21 08:22:00,
2013-01-21 01:32:00,14.0,7.0,-100.00,ENE,75,6.0,19.0,72,-99.99,,,0.00,,2013-01-21 08:32:00,
2013-01-21 01:42:00,14.0,7.0,-100.00,ENE,75,6.0,19.0,72,-99.99,,,0.00,,2013-01-21 08:42:00,
2013-01-21 01:53:00,13.0,6.0,-100.00,North,-999,0.0,0.0,74,-99.99,,,0.00,,2013-01-21 08:53:00,
2013-01-21 02:02:00,13.0,6.0,-100.00,North,-999,0.0,0.0,74,-99.99,,,0.00,,2013-01-21 09:02:00,
2013-01-21 02:12:00,13.0,7.0,-100.00,ENE,75,0.0,1.0,75,-99.99,,,0.00,,2013-01-21 09:12:00,
2013-01-21 02:22:00,13.0,7.0,-100.00,ENE,75,0.0,1.0,75,-99.99,,,0.00,,2013-01-21 09:22:00,
2013-01-21 02:33:00,13.0,7.0,-100.00,ENE,75,0.0,1.0,75,-99.99,,,0.00,,2013-01-21 09:33:00,
2013-01-21 02:42:00,13.0,7.0,-100.00,ENE,75,0.0,1.0,75,-99.99,,,0.00,,2013-01-21 09:42:00,
2013-01-21 02:52:00,13.0,7.0,-100.00,North,-999,0.0,0.0,75,-99.99,,,0.00,,2013-01-21 09:52:00,
2013-01-21 03:02:00,13.0,7.0,-100.00,North,-999,0.0,0.0,75,-99.99,,,0.00,,2013-01-21 10:02:00,
2013-01-21 03:12:00,14.0,8.0,-100.00,NE,55,1.0,3.0,75,-99.99,,,0.00,,2013-01-21 10:12:00,
2013-01-21 03:22:00,14.0,8.0,-100.00,NE,55,1.0,3.0,75,-99.99,,,0.00,,2013-01-21 10:22:00,
2013-01-21 03:32:00,14.0,8.0,-100.00,NE,55,1.0,3.0,75,-99.99,,,0.00,,2013-01-21 10:32:00,
2013-01-21 03:42:00,14.0,8.0,-100.00,NE,55,1.0,3.0,75,-99.99,,,0.00,,2013-01-21 10:42:00,
2013-01-21 03:52:00,13.0,7.0,-100.00,North,-999,0.0,0.0,75,-99.99,,,0.00,,2013-01-21 10:52:00,
2013-01-21 04:02:00,13.0,7.0,-100.00,North,-999,0.0,0.0,75,-99.99,,,0.00,,2013-01-21 11:02:00,
2013-01-21 04:12:00,13.0,7.0,-100.00,ENE,75,0.0,3.0,76,-99.99,,,0.00,,2013-01-21 11:12:00,
2013-01-21 04:22:00,13.0,7.0,-100.00,ENE,75,0.0,3.0,76,-99.99,,,0.00,,2013-01-21 11:22:00,
2013-01-21 04:32:00,13.0,7.0,-100.00,ENE,75,0.0,3.0,76,-99.99,,,0.00,,2013-01-21 11:32:00,
2013-01-21 04:42:00,13.0,7.0,-100.00,ENE,75,0.0,3.0,76,-99.99,,,0.00,,2013-01-21 11:42:00,
2013-01-21 04:53:00,13.0,7.0,-100.00,WSW,255,0.0,1.0,76,-99.99,,,0.00,,2013-01-21 11:53:00,
2013-01-21 05:02:00,13.0,7.0,-100.00,WSW,255,0.0,1.0,76,-99.99,,,0.00,,2013-01-21 12:02:00,
2013-01-21 05:12:00,14.0,8.0,-100.00,WSW,255,0.0,4.0,77,-99.99,,,0.00,,2013-01-21 12:12:00,
2013-01-21 05:22:00,14.0,8.0,-100.00,WSW,255,0.0,4.0,77,-99.99,,,0.00,,2013-01-21 12:22:00,
2013-01-21 05:32:00,14.0,8.0,-100.00,WSW,255,0.0,4.0,77,-99.99,,,0.00,,2013-01-21 12:32:00,
2013-01-21 05:42:00,14.0,8.0,-100.00,WSW,255,0.0,4.0,77,-99.99,,,0.00,,2013-01-21 12:42:00,
2013-01-21 05:52:00,14.0,8.0,-100.00,North,-999,0.0,0.0,77,-99.99,,,0.00,,2013-01-21 12:52:00,
2013-01-21 06:02:00,14.0,8.0,-100.00,North,-999,0.0,0.0,77,-99.99,,,0.00,,2013-01-21 13:02:00,
2013-01-21 06:12:00,14.0,8.0,-100.00,North,-999,0.0,0.0,76,-99.99,,,-99.99,,2013-01-21 13:12:00,
2013-01-21 06:23:00,14.0,8.0,-100.00,North,-999,0.0,0.0,76,-99.99,,,-99.99,,2013-01-21 13:23:00,
2013-01-21 06:33:00,14.0,8.0,-100.00,North,-999,0.0,0.0,76,-99.99,,,0.00,,2013-01-21 13:33:00,
2013-01-21 06:42:00,14.0,8.0,-100.00,North,-999,0.0,0.0,76,-99.99,,,0.00,,2013-01-21 13:42:00,
2013-01-21 06:53:00,14.0,8.0,-100.00,NE,50,0.0,3.0,76,-99.99,,,0.00,,2013-01-21 13:53:00,
2013-01-21 07:03:00,14.0,8.0,-100.00,NE,50,0.0,3.0,76,-99.99,,,0.00,,2013-01-21 14:03:00,
2013-01-21 07:12:00,14.0,8.0,-100.00,NE,55,1.0,2.0,76,-99.99,,,0.00,,2013-01-21 14:12:00,
2013-01-21 07:23:00,14.0,8.0,-100.00,NE,55,1.0,2.0,76,-99.99,,,0.00,,2013-01-21 14:23:00,
2013-01-21 07:32:00,14.0,8.0,-100.00,NE,55,1.0,2.0,76,-99.99,,,0.00,,2013-01-21 14:32:00,
2013-01-21 07:43:00,14.0,8.0,-100.00,NE,55,1.0,2.0,76,-99.99,,,0.00,,2013-01-21 14:43:00,
2013-01-21 07:52:00,14.0,8.0,-100.00,ENE,60,0.0,2.0,76,-99.99,,,0.00,,2013-01-21 14:52:00,
2013-01-21 08:03:00,14.0,8.0,-100.00,ENE,60,0.0,2.0,76,-99.99,,,0.00,,2013-01-21 15:03:00,
2013-01-21 08:13:00,14.0,8.0,-100.00,ENE,75,0.0,3.0,76,-99.99,,,0.00,,2013-01-21 15:13:00,
2013-01-21 08:23:00,14.0,8.0,-100.00,ENE,75,0.0,3.0,76,-99.99,,,0.00,,2013-01-21 15:23:00,
2013-01-21 08:33:00,14.0,8.0,-100.00,ENE,75,0.0,3.0,76,-99.99,,,0.00,,2013-01-21 15:33:00,
2013-01-21 08:42:00,14.0,8.0,-100.00,ENE,75,0.0,3.0,76,-99.99,,,0.00,,2013-01-21 15:42:00,
2013-01-21 09:03:00,14.0,8.0,-100.00,North,-999,0.0,0.0,76,-99.99,,,0.00,,2013-01-21 16:03:00,
2013-01-21 09:12:00,15.0,9.0,-100.00,ENE,60,2.0,3.0,76,-99.99,,,0.00,,2013-01-21 16:12:00,
2013-01-21 09:23:00,15.0,9.0,-100.00,ENE,60,2.0,3.0,76,-99.99,,,0.00,,2013-01-21 16:23:00,
2013-01-21 09:33:00,15.0,9.0,-100.00,ENE,60,2.0,3.0,76,-99.99,,,0.00,,2013-01-21 16:33:00,
2013-01-21 09:43:00,15.0,9.0,-100.00,ENE,60,2.0,3.0,76,-99.99,,,0.00,,2013-01-21 16:43:00,
2013-01-21 09:53:00,16.0,9.0,-100.00,North,-999,0.0,0.0,76,-99.99,,,0.00,,2013-01-21 16:53:00,
2013-01-21 10:02:00,16.0,9.0,-100.00,North,-999,0.0,0.0,76,-99.99,,,0.00,,2013-01-21 17:02:00,
2013-01-21 10:12:00,17.0,9.0,-100.00,North,-999,0.0,0.0,71,-99.99,,,0.00,,2013-01-21 17:12:00,
2013-01-21 10:22:00,17.0,9.0,-100.00,North,-999,0.0,0.0,71,-99.99,,,0.00,,2013-01-21 17:22:00,
2013-01-21 10:33:00,17.0,9.0,-100.00,North,-999,0.0,0.0,71,-99.99,,,0.00,,2013-01-21 17:33:00,
2013-01-21 10:42:00,17.0,9.0,-100.00,North,-999,0.0,0.0,71,-99.99,,,0.00,,2013-01-21 17:42:00,
2013-01-21 10:52:00,21.0,10.0,-100.00,North,-999,0.0,0.0,63,-99.99,,,0.00,,2013-01-21 17:52:00,
2013-01-21 11:02:00,21.0,10.0,-100.00,North,-999,0.0,0.0,63,-99.99,,,0.00,,2013-01-21 18:02:00,
2013-01-21 11:12:00,20.0,10.0,-100.00,NNE,20,0.0,1.0,65,-99.99,,,0.00,,2013-01-21 18:12:00,
2013-01-21 11:22:00,20.0,10.0,-100.00,NNE,20,0.0,1.0,65,-99.99,,,0.00,,2013-01-21 18:22:00,
2013-01-21 11:33:00,20.0,10.0,-100.00,NNE,20,0.0,1.0,65,-99.99,,,0.00,,2013-01-21 18:33:00,
2013-01-21 11:42:00,20.0,10.0,-100.00,NNE,20,0.0,1.0,65,-99.99,,,0.00,,2013-01-21 18:42:00,
2013-01-21 11:52:00,23.0,12.0,-100.00,NE,55,1.0,4.0,62,-99.99,,,0.00,,2013-01-21 18:52:00,
2013-01-21 12:03:00,23.0,12.0,-100.00,NE,55,1.0,4.0,62,-99.99,,,0.00,,2013-01-21 19:03:00,
2013-01-21 12:12:00,25.0,13.0,-100.00,ESE,110,0.0,2.0,60,-99.99,,,0.00,,2013-01-21 19:12:00,
2013-01-21 12:22:00,25.0,13.0,-100.00,ESE,110,0.0,2.0,60,-99.99,,,0.00,,2013-01-21 19:22:00,
2013-01-21 12:33:00,25.0,13.0,-100.00,ESE,110,0.0,2.0,60,-99.99,,,0.00,,2013-01-21 19:33:00,
2013-01-21 12:42:00,25.0,13.0,-100.00,ESE,110,0.0,2.0,60,-99.99,,,0.00,,2013-01-21 19:42:00,
2013-01-21 12:52:00,27.0,13.0,-100.00,ESE,110,1.0,3.0,56,-99.99,,,0.00,,2013-01-21 19:52:00,
2013-01-21 13:03:00,27.0,13.0,-100.00,ESE,110,1.0,3.0,56,-99.99,,,0.00,,2013-01-21 20:03:00,
2013-01-21 13:12:00,27.0,13.0,-100.00,ENE,75,1.0,2.0,53,-99.99,,,0.00,,2013-01-21 20:12:00,
2013-01-21 13:22:00,27.0,13.0,-100.00,ENE,75,1.0,2.0,53,-99.99,,,0.00,,2013-01-21 20:22:00,
2013-01-21 13:32:00,27.0,13.0,-100.00,ENE,75,1.0,2.0,53,-99.99,,,0.00,,2013-01-21 20:32:00,
2013-01-21 13:42:00,27.0,13.0,-100.00,ENE,75,1.0,2.0,53,-99.99,,,0.00,,2013-01-21 20:42:00,
2013-01-21 13:52:00,29.0,13.0,-100.00,East,80,4.0,8.0,51,-99.99,,,0.00,,2013-01-21 20:52:00,
2013-01-21 14:03:00,29.0,13.0,-100.00,East,80,4.0,8.0,51,-99.99,,,0.00,,2013-01-21 21:03:00,
2013-01-21 14:12:00,28.0,13.0,-100.00,NE,50,2.0,9.0,52,-99.99,,,0.00,,2013-01-21 21:12:00,
2013-01-21 14:22:00,28.0,13.0,-100.00,NE,50,2.0,9.0,52,-99.99,,,0.00,,2013-01-21 21:22:00,
2013-01-21 14:33:00,28.0,13.0,-100.00,NE,50,2.0,9.0,52,-99.99,,,0.00,,2013-01-21 21:33:00,
2013-01-21 14:43:00,28.0,13.0,-100.00,NE,50,2.0,9.0,52,-99.99,,,0.00,,2013-01-21 21:43:00,
2013-01-21 14:53:00,29.0,13.0,-100.00,NE,55,4.0,8.0,51,-99.99,,,0.00,,2013-01-21 21:53:00,
2013-01-21 15:03:00,29.0,13.0,-100.00,NE,55,4.0,8.0,51,-99.99,,,0.00,,2013-01-21 22:03:00,
2013-01-21 15:12:00,30.0,13.0,-100.00,NE,50,2.0,8.0,50,-99.99,,,0.00,,2013-01-21 22:12:00,
2013-01-21 15:23:00,30.0,13.0,-100.00,NE,50,2.0,8.0,50,-99.99,,,0.00,,2013-01-21 22:23:00,
2013-01-21 15:33:00,30.0,13.0,-100.00,NE,50,2.0,8.0,50,-99.99,,,0.00,,2013-01-21 22:33:00,
2013-01-21 15:42:00,30.0,13.0,-100.00,NE,50,2.0,8.0,50,-99.99,,,0.00,,2013-01-21 22:42:00,
2013-01-21 15:53:00,30.0,14.0,-100.00,ENE,60,0.0,3.0,50,-99.99,,,0.00,,2013-01-21 22:53:00,
2013-01-21 16:03:00,30.0,14.0,-100.00,ENE,60,0.0,3.0,50,-99.99,,,0.00,,2013-01-21 23:03:00,
2013-01-21 16:12:00,30.0,13.0,-100.00,ENE,60,0.0,4.0,49,-99.99,,,0.00,,2013-01-21 23:12:00,
2013-01-21 16:22:00,30.0,13.0,-100.00,ENE,60,0.0,4.0,49,-99.99,,,0.00,,2013-01-21 23:22:00,
2013-01-21 16:33:00,30.0,13.0,-100.00,ENE,60,0.0,4.0,49,-99.99,,,0.00,,2013-01-21 23:33:00,
2013-01-21 16:42:00,30.0,13.0,-100.00,ENE,60,0.0,4.0,49,-99.99,,,0.00,,2013-01-21 23:42:00,
2013-01-21 16:52:00,30.0,13.0,-100.00,ENE,65,0.0,5.0,49,-99.99,,,0.00,,2013-01-21 23:52:00,
2013-01-21 17:02:00,30.0,13.0,-100.00,ENE,65,0.0,5.0,49,-99.99,,,0.00,,2013-01-22 00:02:00,
2013-01-21 17:12:00,29.0,13.0,-100.00,ENE,65,2.0,5.0,50,-99.99,,,0.00,,2013-01-22 00:12:00,
2013-01-21 17:22:00,29.0,13.0,-100.00,ENE,65,2.0,5.0,50,-99.99,,,0.00,,2013-01-22 00:22:00,
2013-01-21 17:32:00,29.0,13.0,-100.00,ENE,65,2.0,5.0,50,-99.99,,,0.00,,2013-01-22 00:32:00,
2013-01-21 17:42:00,29.0,13.0,-100.00,ENE,65,2.0,5.0,50,-99.99,,,0.00,,2013-01-22 00:42:00,
2013-01-21 17:53:00,28.0,13.0,-100.00,NE,55,3.0,5.0,52,-99.99,,,0.00,,2013-01-22 00:53:00,
2013-01-21 18:02:00,28.0,13.0,-100.00,NE,55,3.0,5.0,52,-99.99,,,0.00,,2013-01-22 01:02:00,
2013-01-21 18:12:00,27.0,13.0,-100.00,ENE,65,0.0,1.0,55,-99.99,,,0.00,,2013-01-22 01:12:00,
2013-01-21 18:23:00,27.0,13.0,-100.00,ENE,65,0.0,1.0,55,-99.99,,,0.00,,2013-01-22 01:23:00,
2013-01-21 18:32:00,27.0,13.0,-100.00,ENE,65,0.0,1.0,55,-99.99,,,0.00,,2013-01-22 01:32:00,
2013-01-21 18:42:00,27.0,13.0,-100.00,ENE,65,0.0,1.0,55,-99.99,,,0.00,,2013-01-22 01:42:00,
2013-01-21 18:52:00,25.0,12.0,-100.00,North,-999,0.0,0.0,56,-99.99,,,0.00,,2013-01-22 01:52:00,
2013-01-21 19:02:00,25.0,12.0,-100.00,North,-999,0.0,0.0,56,-99.99,,,0.00,,2013-01-22 02:02:00,
2013-01-21 19:12:00,25.0,12.0,-100.00,NE,55,1.0,3.0,58,-99.99,,,0.00,,2013-01-22 02:12:00,
2013-01-21 19:22:00,25.0,12.0,-100.00,NE,55,1.0,3.0,58,-99.99,,,0.00,,2013-01-22 02:22:00,
2013-01-21 19:32:00,25.0,12.0,-100.00,NE,55,1.0,3.0,58,-99.99,,,0.00,,2013-01-22 02:32:00,
2013-01-21 19:42:00,25.0,12.0,-100.00,NE,55,1.0,3.0,58,-99.99,,,0.00,,2013-01-22 02:42:00,
2013-01-21 19:52:00,23.0,12.0,-100.00,ENE,70,0.0,2.0,60,-99.99,,,0.00,,2013-01-22 02:52:00,
2013-01-21 20:02:00,23.0,12.0,-100.00,ENE,70,0.0,2.0,60,-99.99,,,0.00,,2013-01-22 03:02:00,
2013-01-21 20:12:00,23.0,11.0,-100.00,North,-999,0.0,0.0,62,-99.99,,,0.00,,2013-01-22 03:12:00,
2013-01-21 20:22:00,23.0,11.0,-100.00,North,-999,0.0,0.0,62,-99.99,,,0.00,,2013-01-22 03:22:00,
2013-01-21 20:32:00,23.0,11.0,-100.00,North,-999,0.0,0.0,62,-99.99,,,0.00,,2013-01-22 03:32:00,
2013-01-21 20:42:00,23.0,11.0,-100.00,North,-999,0.0,0.0,62,-99.99,,,0.00,,2013-01-22 03:42:00,
2013-01-21 20:52:00,21.0,11.0,-100.00,ESE,115,0.0,1.0,65,-99.99,,,0.00,,2013-01-22 03:52:00,
2013-01-21 21:02:00,21.0,11.0,-100.00,ESE,115,0.0,1.0,65,-99.99,,,0.00,,2013-01-22 04:02:00,
2013-01-21 21:12:00,18.0,9.0,-100.00,North,-999,0.0,0.0,69,-99.99,,,0.00,,2013-01-22 04:12:00,
2013-01-21 21:22:00,18.0,9.0,-100.00,North,-999,0.0,0.0,69,-99.99,,,0.00,,2013-01-22 04:22:00,
2013-01-21 21:32:00,18.0,9.0,-100.00,North,-999,0.0,0.0,69,-99.99,,,0.00,,2013-01-22 04:32:00,
2013-01-21 21:42:00,18.0,9.0,-100.00,North,-999,0.0,0.0,69,-99.99,,,0.00,,2013-01-22 04:42:00,
2013-01-21 21:52:00,16.0,9.0,-100.00,North,-999,0.0,0.0,73,-99.99,,,-99.99,,2013-01-22 04:52:00,
2013-01-21 22:03:00,16.0,9.0,-100.00,North,-999,0.0,0.0,73,-99.99,,,-99.99,,2013-01-22 05:03:00,
2013-01-21 22:12:00,15.0,9.0,-100.00,North,-999,0.0,0.0,76,-99.99,,,-99.99,,2013-01-22 05:12:00,
2013-01-21 22:22:00,15.0,9.0,-100.00,North,-999,0.0,0.0,76,-99.99,,,-99.99,,2013-01-22 05:22:00,
2013-01-21 22:32:00,15.0,9.0,-100.00,North,-999,0.0,0.0,76,-99.99,,,-99.99,,2013-01-22 05:32:00,
2013-01-21 22:42:00,15.0,9.0,-100.00,North,-999,0.0,0.0,76,-99.99,,,-99.99,,2013-01-22 05:42:00,
2013-01-21 22:52:00,15.0,9.0,-100.00,North,-999,0.0,0.0,77,-99.99,,,0.00,,2013-01-22 05:52:00,
2013-01-21 23:02:00,15.0,9.0,-100.00,North,-999,0.0,0.0,77,-99.99,,,0.00,,2013-01-22 06:02:00,
2013-01-21 23:12:00,15.0,10.0,-100.00,North,-999,0.0,0.0,79,-99.99,,,0.00,,2013-01-22 06:12:00,
2013-01-21 23:22:00,15.0,10.0,-100.00,North,-999,0.0,0.0,79,-99.99,,,0.00,,2013-01-22 06:22:00,
2013-01-21 23:32:00,15.0,10.0,-100.00,North,-999,0.0,0.0,79,-99.99,,,0.00,,2013-01-22 06:32:00,
2013-01-21 23:52:00,14.0,9.0,-100.00,North,-999,0.0,0.0,80,-99.99,,,0.00,,2013-01-22 06:52:00,